createdAt,value
2019-05-21T00:04:10.295Z,74.52
2019-05-21T00:12:31.796Z,76.38
2019-05-21T00:20:52.898Z,75.84
2019-05-21T00:29:14.036Z,76.08
2019-05-21T00:37:35.191Z,75.26
2019-05-21T00:45:56.634Z,75.91
2019-05-21T00:54:17.912Z,75.49
2019-05-21T01:02:39.132Z,76.24
2019-05-21T01:11:00.257Z,76.20
2019-05-21T01:19:21.386Z,77.25
2019-05-21T01:27:42.549Z,76.72
2019-05-21T01:36:03.653Z,75.60
2019-05-21T01:44:24.769Z,74.86
2019-05-21T01:52:45.906Z,76.31
2019-05-21T02:01:07.400Z,75.21
2019-05-21T02:09:28.537Z,75.22
2019-05-21T02:17:49.792Z,75.03
2019-05-21T02:26:11.241Z,74.33
2019-05-21T02:34:32.352Z,73.77
2019-05-21T02:42:53.489Z,74.48
2019-05-21T02:51:15.703Z,74.43
2019-05-21T02:59:36.843Z,74.84
2019-05-21T03:07:57.979Z,76.02
2019-05-21T03:16:19.111Z,75.59
2019-05-21T03:24:40.370Z,76.69
2019-05-21T03:33:01.549Z,76.29
2019-05-21T03:41:22.717Z,75.85
2019-05-21T03:49:43.869Z,76.18
2019-05-21T03:58:05.072Z,75.71
2019-05-21T04:06:28.869Z,74.10
2019-05-21T04:14:49.008Z,73.25
2019-05-21T04:23:10.107Z,74.95
2019-05-21T04:31:31.232Z,77.19
2019-05-21T04:39:52.363Z,76.74
2019-05-21T04:48:13.848Z,75.76
2019-05-21T04:56:35.052Z,76.61
2019-05-21T05:04:56.475Z,77.17
2019-05-21T05:13:17.601Z,77.37
2019-05-21T05:21:38.727Z,77.37
2019-05-21T05:30:00.886Z,76.61
2019-05-21T05:38:23.056Z,76.44
2019-05-21T05:46:44.285Z,75.68
2019-05-21T05:55:05.410Z,75.19
2019-05-21T06:03:26.933Z,74.45
2019-05-21T06:11:48.374Z,73.19
2019-05-21T06:20:09.552Z,73.55
2019-05-21T06:28:30.813Z,73.34
2019-05-21T06:36:52.064Z,73.02
2019-05-21T06:45:13.506Z,73.87
2019-05-21T06:53:34.661Z,73.77
2019-05-21T07:01:55.864Z,72.23
2019-05-21T07:10:16.970Z,72.15
2019-05-21T07:18:41.400Z,71.66
2019-05-21T07:27:02.393Z,70.58
2019-05-21T07:35:23.661Z,69.66
2019-05-21T07:43:44.803Z,69.10
2019-05-21T07:52:06.055Z,70.76
2019-05-21T08:00:27.206Z,70.68
2019-05-21T08:08:48.343Z,69.98
2019-05-21T08:17:09.732Z,72.52
2019-05-21T08:25:30.987Z,73.63
2019-05-21T08:33:52.109Z,71.64
2019-05-21T08:42:13.341Z,71.06
2019-05-21T08:50:35.488Z,70.62
2019-05-21T08:58:56.970Z,70.34
2019-05-21T09:07:18.558Z,71.46
2019-05-21T09:15:39.993Z,72.50
2019-05-21T09:24:01.474Z,72.61
2019-05-21T09:32:22.915Z,72.79
2019-05-21T09:40:44.369Z,72.92
2019-05-21T09:49:05.818Z,73.17
2019-05-21T09:57:27.267Z,73.21
2019-05-21T10:05:49.393Z,73.12
2019-05-21T10:14:16.610Z,74.89
2019-05-21T10:22:38.055Z,75.71
2019-05-21T10:31:00.110Z,76.23
2019-05-21T10:39:21.229Z,76.44
2019-05-21T10:47:42.374Z,75.95
2019-05-21T10:56:03.981Z,75.69
2019-05-21T11:04:25.452Z,74.95
2019-05-21T11:12:46.589Z,73.90
2019-05-21T11:21:08.038Z,73.50
2019-05-21T11:29:29.310Z,73.22
2019-05-21T11:37:50.513Z,72.50
2019-05-21T11:46:12.016Z,73.03
2019-05-21T11:54:33.161Z,73.00
2019-05-21T12:02:54.595Z,73.36
2019-05-21T12:11:15.846Z,73.32
2019-05-21T12:19:37.449Z,73.43
2019-05-21T12:27:58.673Z,72.83
2019-05-21T12:36:19.848Z,72.45
2019-05-21T12:44:42.076Z,71.92
2019-05-21T12:53:03.283Z,71.65
2019-05-21T13:01:24.571Z,72.78
2019-05-21T13:09:45.778Z,71.10
2019-05-21T13:18:07.320Z,70.48
2019-05-21T13:26:28.823Z,70.69
2019-05-21T13:34:50.070Z,71.55
2019-05-21T13:43:11.506Z,71.49
2019-05-21T13:51:33.022Z,71.63
2019-05-21T13:59:54.477Z,71.25
2019-05-21T14:08:16.042Z,71.49
2019-05-21T14:16:37.637Z,71.55
2019-05-21T14:24:59.039Z,71.03
2019-05-21T14:33:20.200Z,70.67
2019-05-21T14:41:41.623Z,70.42
2019-05-21T14:50:03.076Z,71.44
2019-05-21T14:58:24.215Z,71.59
2019-05-21T15:06:45.708Z,71.56
2019-05-21T15:15:07.259Z,71.47
2019-05-21T15:23:28.513Z,71.08
2019-05-21T15:31:50.986Z,71.21
2019-05-21T15:40:12.237Z,72.41
2019-05-21T15:48:33.699Z,72.66
2019-05-21T15:56:54.908Z,72.40
2019-05-21T16:05:16.397Z,72.10
2019-05-21T16:13:37.551Z,71.92
2019-05-21T16:21:58.733Z,72.10
2019-05-21T16:30:20.224Z,72.03
2019-05-21T16:38:41.367Z,72.09
2019-05-21T16:47:02.501Z,71.45
2019-05-21T16:55:23.974Z,70.91
2019-05-21T17:03:59.023Z,71.07
2019-05-21T17:12:08.191Z,71.43
2019-05-21T17:20:33.901Z,71.56
2019-05-21T17:28:56.353Z,71.72
2019-05-21T17:37:17.703Z,71.89
2019-05-21T17:45:38.918Z,71.67
2019-05-21T17:54:00.356Z,71.74
2019-05-21T18:02:21.729Z,71.44
2019-05-21T18:10:43.022Z,71.92
2019-05-21T18:19:08.297Z,71.43
2019-05-21T18:27:27.329Z,70.99
2019-05-21T18:35:48.820Z,70.90
2019-05-21T18:44:10.266Z,70.97
2019-05-21T18:52:31.389Z,71.32
2019-05-21T19:00:52.514Z,71.09
2019-05-21T19:09:13.629Z,70.96
2019-05-21T19:17:35.977Z,70.92
2019-05-21T19:25:57.314Z,71.03
2019-05-21T19:34:18.806Z,70.79
2019-05-21T19:42:53.880Z,70.55
2019-05-21T19:51:03.134Z,70.22
2019-05-21T19:59:24.615Z,70.36
2019-05-21T20:07:46.036Z,70.95
2019-05-21T20:16:07.565Z,71.20
2019-05-21T20:24:28.666Z,71.61
2019-05-21T20:32:50.802Z,71.68
2019-05-21T20:41:12.453Z,71.64
2019-05-21T20:49:33.749Z,72.09
2019-05-21T20:57:55.211Z,72.37
2019-05-21T21:06:16.367Z,72.57
2019-05-21T21:14:37.476Z,72.41
2019-05-21T21:22:58.745Z,72.36
2019-05-21T21:31:20.205Z,71.99
2019-05-21T21:39:41.438Z,71.77
2019-05-21T21:48:02.922Z,71.80
2019-05-21T21:56:24.382Z,71.92
2019-05-21T22:04:45.535Z,71.69
2019-05-21T22:13:07.547Z,72.14
2019-05-21T22:21:28.824Z,72.60
2019-05-21T22:29:50.297Z,73.22
2019-05-21T22:38:11.843Z,73.43
2019-05-21T22:46:33.110Z,73.22
2019-05-21T22:54:54.244Z,73.93
2019-05-21T23:03:15.561Z,73.84
2019-05-21T23:11:36.706Z,73.56
2019-05-21T23:19:58.235Z,74.00
2019-05-21T23:28:20.365Z,74.21
2019-05-21T23:36:41.476Z,73.83
2019-05-21T23:45:02.627Z,74.70
2019-05-21T23:53:23.909Z,74.07
